Time;durP1;ratioP1;P1;durP2;ratioP2;P2;SDS_P1;SDS_P2;PMS_P1;PMS_P2;Temp;Humidity;BMP_temperature;BMP_pressure;BME280_temperature;BME280_humidity;BME280_pressure;Samples;Min_cycle;Max_cycle;Signal;HPM_P1;HPM_P2
2023/10/06 00:02:58;;;;;;;8.35;2.22;;;14.40;99.90;;;;;;5033887;28;20049;-49
2023/10/06 00:05:25;;;;;;;11.00;2.53;;;14.40;99.90;;;;;;5035612;28;20042;-49
2023/10/06 00:07:51;;;;;;;9.07;2.63;;;14.40;99.90;;;;;;5035673;28;20465;-51
2023/10/06 00:10:21;;;;;;;10.07;2.50;;;14.40;99.90;;;;;;5035374;28;20491;-53
2023/10/06 00:12:50;;;;;;;11.48;2.92;;;14.30;99.90;;;;;;5035337;28;20116;-48
2023/10/06 00:15:26;;;;;;;6.38;2.33;;;14.40;99.90;;;;;;5035070;28;20041;-45
2023/10/06 00:17:56;;;;;;;13.50;3.60;;;14.40;99.90;;;;;;5034631;28;20037;-46
2023/10/06 00:20:26;;;;;;;9.50;2.60;;;14.40;99.90;;;;;;5034794;28;20091;-45
2023/10/06 00:23:02;;;;;;;9.27;2.55;;;14.40;99.90;;;;;;5033792;28;20555;-49
2023/10/06 00:25:29;;;;;;;13.38;2.58;;;14.40;99.90;;;;;;5035341;28;20124;-48
2023/10/06 00:27:56;;;;;;;9.10;2.60;;;14.40;99.90;;;;;;5034587;28;20045;-47
2023/10/06 00:30:25;;;;;;;13.18;2.70;;;14.40;99.90;;;;;;5033864;28;20049;-46
2023/10/06 00:32:54;;;;;;;12.13;3.17;;;14.40;99.90;;;;;;5033561;28;20045;-48
2023/10/06 00:35:30;;;;;;;8.63;2.10;;;14.40;99.90;;;;;;5035125;28;20044;-47
2023/10/06 00:38:12;;;;;;;12.07;2.58;;;14.30;99.90;;;;;;5034703;28;20045;-47
2023/10/06 00:40:44;;;;;;;6.43;2.25;;;14.30;99.90;;;;;;5034392;28;20033;-50
2023/10/06 00:43:15;;;;;;;13.10;2.50;;;14.30;99.90;;;;;;5034328;28;20045;-48
2023/10/06 00:45:44;;;;;;;12.25;2.30;;;14.30;99.90;;;;;;5034550;28;20099;-49
2023/10/06 00:48:14;;;;;;;11.32;3.17;;;14.30;99.90;;;;;;5033579;28;20060;-51
2023/10/06 00:50:42;;;;;;;10.93;2.42;;;14.40;99.90;;;;;;5033137;28;20095;-50
2023/10/06 00:53:10;;;;;;;11.60;3.15;;;14.40;99.90;;;;;;5033037;28;20096;-49
2023/10/06 00:55:37;;;;;;;10.43;2.17;;;14.40;99.90;;;;;;5034461;28;20045;-48
2023/10/06 00:58:10;;;;;;;9.02;2.10;;;14.40;99.90;;;;;;5032668;28;20045;-48
2023/10/06 01:00:37;;;;;;;8.95;2.58;;;14.50;99.90;;;;;;5034113;28;20124;-44
2023/10/06 01:03:10;;;;;;;14.88;2.90;;;14.50;99.90;;;;;;5034176;28;20072;-52
2023/10/06 01:05:38;;;;;;;12.20;2.63;;;14.50;99.90;;;;;;5034201;28;20041;-47
2023/10/06 01:08:05;;;;;;;9.20;2.40;;;14.50;99.90;;;;;;5033891;28;20037;-43
2023/10/06 01:10:34;;;;;;;8.73;2.22;;;14.50;99.90;;;;;;5034274;28;20087;-48
2023/10/06 01:13:12;;;;;;;9.95;2.70;;;14.50;99.90;;;;;;5032569;28;20038;-45
2023/10/06 01:15:45;;;;;;;7.85;2.33;;;14.50;99.90;;;;;;5034328;28;20103;-51
2023/10/06 01:18:19;;;;;;;7.60;2.63;;;14.50;99.90;;;;;;5032288;28;20128;-51
2023/10/06 01:20:48;;;;;;;9.98;2.55;;;14.50;99.90;;;;;;5033061;28;20554;-47
2023/10/06 01:23:21;;;;;;;12.10;2.60;;;14.50;99.90;;;;;;5032399;28;20038;-44
2023/10/06 01:25:54;;;;;;;11.20;2.92;;;14.50;99.90;;;;;;5032654;28;20099;-49
2023/10/06 01:28:23;;;;;;;8.60;2.67;;;14.50;99.90;;;;;;5032322;28;20080;-47
2023/10/06 01:30:53;;;;;;;6.40;2.38;;;14.50;99.90;;;;;;5033586;28;20045;-50
2023/10/06 01:33:20;;;;;;;8.57;2.40;;;14.40;99.90;;;;;;5033026;28;20053;-50
2023/10/06 01:35:47;;;;;;;9.98;3.03;;;14.50;99.90;;;;;;5033619;28;20057;-45
2023/10/06 01:38:22;;;;;;;11.90;2.83;;;14.50;99.90;;;;;;5032056;28;20481;-50
2023/10/06 01:40:53;;;;;;;8.00;2.50;;;14.40;99.90;;;;;;5032126;28;20456;-44
2023/10/06 01:43:29;;;;;;;12.18;2.78;;;14.40;99.90;;;;;;5031748;28;20045;-49
2023/10/06 01:45:59;;;;;;;10.00;2.45;;;14.40;99.90;;;;;;5033198;28;20046;-46
2023/10/06 01:48:30;;;;;;;7.80;2.20;;;14.40;99.90;;;;;;5032888;28;20485;-44
2023/10/06 01:50:57;;;;;;;9.02;2.15;;;14.40;99.90;;;;;;5033600;28;20076;-46
2023/10/06 01:53:31;;;;;;;7.82;2.20;;;14.40;99.90;;;;;;5031748;28;20050;-47
2023/10/06 01:56:01;;;;;;;10.75;2.55;;;14.30;99.90;;;;;;5031935;28;20052;-52
2023/10/06 01:58:28;;;;;;;10.88;2.47;;;14.30;99.90;;;;;;5031431;28;20038;-46
2023/10/06 02:00:55;;;;;;;10.15;2.60;;;14.30;99.90;;;;;;5031638;28;20136;-48
2023/10/06 02:03:23;;;;;;;7.70;2.13;;;14.30;99.90;;;;;;5032101;28;20038;-51
2023/10/06 02:05:59;;;;;;;9.60;2.20;;;14.20;99.90;;;;;;5033048;28;20053;-47
2023/10/06 02:08:26;;;;;;;8.55;2.60;;;14.30;99.90;;;;;;5015328;28;20409;-49
2023/10/06 02:10:55;;;;;;;10.52;2.33;;;14.20;99.90;;;;;;5033005;28;20042;-49
2023/10/06 02:13:22;;;;;;;6.75;2.50;;;14.20;99.90;;;;;;5031926;28;20046;-48
2023/10/06 02:15:49;;;;;;;9.85;2.42;;;14.20;99.90;;;;;;5032771;28;20049;-46
2023/10/06 02:18:15;;;;;;;10.57;2.90;;;14.10;99.90;;;;;;5032719;28;20116;-49
2023/10/06 02:20:46;;;;;;;8.45;2.42;;;14.10;99.90;;;;;;5032861;28;20389;-47
2023/10/06 02:23:13;;;;;;;8.40;2.33;;;14.10;99.90;;;;;;5033319;28;20072;-49
2023/10/06 02:25:40;;;;;;;12.50;2.88;;;14.10;99.90;;;;;;5032990;28;20087;-49
2023/10/06 02:28:08;;;;;;;10.32;2.65;;;14.10;99.90;;;;;;5033327;28;20053;-50
2023/10/06 02:30:40;;;;;;;9.45;2.40;;;14.10;99.90;;;;;;5031487;28;20136;-48
2023/10/06 02:33:11;;;;;;;8.50;2.28;;;14.10;99.90;;;;;;5031858;28;20104;-52
2023/10/06 02:35:44;;;;;;;9.85;2.15;;;14.10;99.90;;;;;;5032868;28;20057;-47
2023/10/06 02:38:12;;;;;;;9.83;2.40;;;14.10;99.90;;;;;;5032891;28;20044;-46
2023/10/06 02:40:45;;;;;;;9.80;2.53;;;14.10;99.90;;;;;;5032785;28;20270;-48
2023/10/06 02:43:22;;;;;;;9.95;2.60;;;14.10;99.90;;;;;;5031443;28;20119;-45
2023/10/06 02:45:51;;;;;;;9.13;2.55;;;14.10;99.90;;;;;;5034227;28;20048;-46
2023/10/06 02:48:22;;;;;;;11.75;2.72;;;14.10;99.90;;;;;;5036471;28;20077;-46
2023/10/06 02:50:54;;;;;;;8.38;2.50;;;14.10;99.90;;;;;;5036443;28;20384;-43
2023/10/06 02:53:23;;;;;;;9.35;2.40;;;14.10;99.90;;;;;;5036382;28;20064;-50
2023/10/06 02:55:56;;;;;;;7.25;2.25;;;14.10;99.90;;;;;;5036527;28;20428;-47
2023/10/06 02:58:27;;;;;;;11.32;2.95;;;14.10;99.90;;;;;;5036225;28;20042;-52
2023/10/06 03:00:55;;;;;;;7.63;2.38;;;14.10;99.90;;;;;;5036245;28;20065;-48
2023/10/06 03:03:26;;;;;;;14.32;3.25;;;14.10;99.90;;;;;;5034847;28;20105;-48
2023/10/06 03:05:56;;;;;;;11.90;2.85;;;14.10;99.90;;;;;;5034971;28;20041;-44
2023/10/06 03:08:30;;;;;;;10.45;2.80;;;14.10;99.90;;;;;;5035165;28;20103;-46
2023/10/06 03:10:56;;;;;;;12.50;2.78;;;14.10;99.90;;;;;;5034733;28;20052;-47
2023/10/06 03:13:42;;;;;;;11.80;2.60;;;14.10;99.90;;;;;;5034930;28;20408;-47
2023/10/06 03:16:11;;;;;;;10.85;2.42;;;14.10;99.90;;;;;;5034990;28;20049;-49
2023/10/06 03:18:38;;;;;;;12.43;2.30;;;14.10;99.90;;;;;;5035003;28;20041;-50
2023/10/06 03:23:39;;;;;;;11.45;2.63;;;14.10;99.90;;;;;;5034950;28;20053;-48
2023/10/06 03:26:11;;;;;;;11.82;2.38;;;14.20;99.90;;;;;;5034817;28;20045;-47
2023/10/06 03:28:42;;;;;;;10.52;2.70;;;14.20;99.90;;;;;;5036605;28;20061;-47
2023/10/06 03:33:46;;;;;;;7.03;2.08;;;14.20;99.90;;;;;;5034329;28;20046;-48
2023/10/06 03:36:16;;;;;;;9.73;2.22;;;14.20;99.90;;;;;;5018759;28;20049;-48
2023/10/06 03:38:51;;;;;;;12.60;2.28;;;14.20;99.90;;;;;;5034590;28;20101;-50
2023/10/06 03:41:19;;;;;;;7.80;2.50;;;14.20;99.90;;;;;;5034629;28;20041;-49
2023/10/06 03:43:50;;;;;;;10.82;2.70;;;14.20;99.90;;;;;;5036177;28;20037;-53
2023/10/06 03:46:19;;;;;;;7.55;2.70;;;14.30;99.90;;;;;;5034569;28;20038;-50
2023/10/06 03:48:46;;;;;;;7.82;2.92;;;14.20;99.90;;;;;;5034063;28;20042;-49
2023/10/06 03:51:12;;;;;;;12.80;2.70;;;14.30;99.90;;;;;;5035227;28;20121;-47
2023/10/06 03:53:40;;;;;;;9.55;2.90;;;14.30;99.90;;;;;;5035986;28;20095;-47
2023/10/06 03:56:06;;;;;;;11.70;2.42;;;14.30;99.90;;;;;;5034402;28;20045;-49
2023/10/06 03:58:33;;;;;;;11.07;2.72;;;14.30;99.90;;;;;;5034558;28;20047;-49
2023/10/06 04:01:08;;;;;;;9.10;2.25;;;14.30;99.90;;;;;;5035756;28;20053;-47
2023/10/06 04:03:36;;;;;;;;;;;14.30;99.90;;;;;;5035685;28;20037;-52
2023/10/06 04:06:04;;;;;;;9.00;2.50;;;14.30;99.90;;;;;;5035708;28;19921;-48
2023/10/06 04:08:30;;;;;;;10.45;2.20;;;14.30;99.90;;;;;;5035776;28;20045;-49
2023/10/06 04:10:58;;;;;;;12.63;2.80;;;14.30;99.90;;;;;;5035656;28;20060;-46
2023/10/06 04:13:25;;;;;;;9.73;2.60;;;14.30;99.90;;;;;;5035052;28;20456;-47
2023/10/06 04:15:57;;;;;;;10.45;2.50;;;14.30;99.90;;;;;;5035078;28;20045;-47
2023/10/06 04:18:24;;;;;;;9.07;2.65;;;14.30;99.90;;;;;;5034877;28;20037;-46
2023/10/06 04:20:51;;;;;;;9.52;2.83;;;14.30;99.90;;;;;;5035219;28;20033;-46
2023/10/06 04:23:18;;;;;;;13.63;2.85;;;14.20;99.90;;;;;;5034961;28;20124;-51
2023/10/06 04:25:44;;;;;;;7.30;2.00;;;14.20;99.90;;;;;;5034945;28;20113;-50
2023/10/06 04:28:13;;;;;;;7.90;2.63;;;14.20;99.90;;;;;;5034983;28;20473;-49
2023/10/06 04:30:42;;;;;;;10.10;2.58;;;14.20;99.90;;;;;;5033602;28;20385;-48
2023/10/06 04:33:10;;;;;;;10.43;2.78;;;14.20;99.90;;;;;;5034691;28;20048;-46
2023/10/06 04:35:40;;;;;;;11.02;2.60;;;14.20;99.90;;;;;;5035295;28;20358;-51
2023/10/06 04:38:10;;;;;;;10.98;2.60;;;14.30;99.90;;;;;;5034588;28;20043;-53
2023/10/06 04:40:37;;;;;;;9.15;2.90;;;14.20;99.90;;;;;;5034763;28;20041;-49
2023/10/06 04:43:04;;;;;;;9.50;2.30;;;14.30;99.90;;;;;;5034481;28;20048;-50
2023/10/06 04:45:31;;;;;;;7.38;2.17;;;14.20;99.90;;;;;;5034740;28;20048;-52
2023/10/06 04:48:00;;;;;;;10.55;3.00;;;14.30;99.90;;;;;;5034685;28;20396;-50
2023/10/06 04:50:30;;;;;;;7.55;2.08;;;14.20;99.90;;;;;;5034516;28;20051;-49
2023/10/06 04:52:57;;;;;;;9.75;2.40;;;14.30;99.90;;;;;;5034160;28;20136;-47
2023/10/06 04:55:24;;;;;;;9.48;2.50;;;14.30;99.90;;;;;;5034990;28;20128;-48
2023/10/06 04:57:50;;;;;;;8.93;2.75;;;14.30;99.90;;;;;;5034123;28;20065;-46
2023/10/06 05:00:21;;;;;;;12.45;2.80;;;14.30;99.90;;;;;;5034089;28;20547;-48
2023/10/06 05:02:47;;;;;;;11.13;2.85;;;14.30;99.90;;;;;;5034421;28;20124;-44
2023/10/06 05:05:19;;;;;;;12.38;2.97;;;14.30;99.90;;;;;;5034122;28;20042;-49
2023/10/06 05:07:45;;;;;;;9.75;2.40;;;14.30;99.90;;;;;;5033572;28;20477;-51
2023/10/06 05:10:12;;;;;;;11.40;2.50;;;14.30;99.90;;;;;;5033900;28;20069;-48
2023/10/06 05:12:42;;;;;;;11.73;2.88;;;14.30;99.90;;;;;;5034515;28;20053;-47
2023/10/06 05:15:09;;;;;;;9.50;2.90;;;14.20;99.90;;;;;;5034217;28;20351;-47
2023/10/06 05:17:39;;;;;;;11.48;2.90;;;14.30;99.90;;;;;;5033864;28;20428;-46
2023/10/06 05:20:13;;;;;;;9.63;2.33;;;14.20;99.90;;;;;;5034591;28;20113;-49
2023/10/06 05:22:40;;;;;;;6.97;2.35;;;14.20;99.90;;;;;;5034640;28;20056;-47
2023/10/06 05:25:12;;;;;;;8.15;2.22;;;14.30;99.90;;;;;;5034318;28;20045;-48
2023/10/06 05:27:39;;;;;;;9.73;2.75;;;14.20;99.90;;;;;;5034463;28;20045;-48
2023/10/06 05:30:06;;;;;;;10.55;2.72;;;14.20;99.90;;;;;;5034000;28;20041;-50
2023/10/06 05:32:33;;;;;;;8.73;2.83;;;14.30;99.90;;;;;;5033429;28;20041;-49
2023/10/06 05:34:59;;;;;;;13.63;2.88;;;14.20;99.90;;;;;;5034035;28;20120;-48
2023/10/06 05:37:26;;;;;;;10.70;2.60;;;14.30;99.90;;;;;;5034021;28;20119;-48
2023/10/06 05:39:53;;;;;;;9.75;2.70;;;14.30;99.90;;;;;;5033647;28;20100;-48
2023/10/06 05:42:20;;;;;;;11.98;2.95;;;14.20;99.90;;;;;;5033857;28;20049;-47
2023/10/06 05:44:47;;;;;;;9.70;2.92;;;14.20;99.90;;;;;;5033782;28;20159;-48
2023/10/06 05:47:14;;;;;;;9.55;2.60;;;14.30;99.90;;;;;;5033655;28;20037;-46
2023/10/06 05:49:47;;;;;;;8.02;2.50;;;14.20;99.90;;;;;;5033374;28;20065;-45
2023/10/06 05:52:14;;;;;;;8.32;2.35;;;14.20;99.90;;;;;;5033446;28;20393;-46
2023/10/06 05:54:42;;;;;;;8.50;2.75;;;14.20;99.90;;;;;;5033363;28;20100;-49
2023/10/06 05:57:09;;;;;;;6.75;2.67;;;14.30;99.90;;;;;;5033429;28;20568;-48
2023/10/06 05:59:38;;;;;;;9.18;2.40;;;14.20;99.90;;;;;;5033631;28;20042;-45
2023/10/06 06:02:05;;;;;;;8.65;2.80;;;14.30;99.90;;;;;;5033323;28;20568;-48
2023/10/06 06:04:34;;;;;;;9.55;3.15;;;14.30;99.90;;;;;;5032803;28;20080;-49
2023/10/06 06:07:08;;;;;;;10.88;3.40;;;14.20;99.90;;;;;;5033149;28;20473;-48
2023/10/06 06:09:34;;;;;;;10.27;2.42;;;14.20;99.90;;;;;;5033206;28;20042;-45
2023/10/06 06:12:02;;;;;;;8.15;2.55;;;14.20;99.90;;;;;;5033429;28;20045;-49
2023/10/06 06:14:31;;;;;;;7.78;2.60;;;14.20;99.90;;;;;;5032879;28;20048;-50
2023/10/06 06:16:58;;;;;;;11.18;3.47;;;14.20;99.90;;;;;;5033076;28;20520;-51
2023/10/06 06:19:25;;;;;;;10.50;3.28;;;14.20;99.90;;;;;;5032625;28;20384;-48
2023/10/06 06:21:52;;;;;;;8.73;2.72;;;14.10;99.90;;;;;;5033496;28;20120;-48
2023/10/06 06:24:22;;;;;;;10.25;3.03;;;14.10;99.90;;;;;;5033250;28;20433;-50
2023/10/06 06:26:49;;;;;;;11.93;3.20;;;14.10;99.90;;;;;;5033374;28;20048;-49
2023/10/06 06:29:19;;;;;;;14.60;3.00;;;14.20;99.90;;;;;;5032312;28;20049;-47
2023/10/06 06:31:46;;;;;;;10.35;3.00;;;14.10;99.90;;;;;;5031827;28;20044;-48
2023/10/06 06:34:13;;;;;;;9.60;2.78;;;14.10;99.90;;;;;;5033129;28;20045;-46
2023/10/06 06:36:41;;;;;;;10.02;2.90;;;14.10;99.90;;;;;;5033428;28;20115;-48
2023/10/06 06:39:10;;;;;;;10.40;2.85;;;14.10;99.90;;;;;;5032661;28;20042;-47
2023/10/06 06:41:37;;;;;;;9.70;3.35;;;14.10;99.90;;;;;;5033316;28;20033;-47
2023/10/06 06:44:04;;;;;;;11.60;3.17;;;14.10;99.90;;;;;;5032886;28;20069;-48
2023/10/06 06:46:31;;;;;;;8.18;2.97;;;14.10;99.90;;;;;;5033081;28;20132;-47
2023/10/06 06:48:59;;;;;;;12.93;3.00;;;14.10;99.90;;;;;;5033172;28;20064;-50
2023/10/06 06:51:30;;;;;;;12.70;3.13;;;14.10;99.90;;;;;;5032700;28;20045;-50
2023/10/06 06:53:57;;;;;;;10.90;2.53;;;14.10;99.90;;;;;;5032831;28;20049;-49
2023/10/06 06:56:24;;;;;;;12.77;3.80;;;14.10;99.90;;;;;;5032733;28;20050;-47
2023/10/06 06:58:54;;;;;;;9.73;3.08;;;14.10;99.90;;;;;;5032832;28;20133;-50
2023/10/06 07:01:21;;;;;;;9.70;3.08;;;14.20;99.90;;;;;;5033209;28;20037;-49
2023/10/06 07:03:48;;;;;;;8.30;2.95;;;14.20;99.90;;;;;;5032584;28;20037;-52
2023/10/06 07:06:16;;;;;;;10.88;3.30;;;14.20;99.90;;;;;;5033086;28;20128;-46
2023/10/06 07:08:43;;;;;;;9.05;2.80;;;14.20;99.90;;;;;;5033010;28;20431;-50
2023/10/06 07:11:10;;;;;;;11.48;2.97;;;14.30;99.90;;;;;;5032636;28;20385;-46
2023/10/06 07:13:37;;;;;;;11.90;2.90;;;14.30;99.90;;;;;;5031994;28;20048;-53
2023/10/06 07:16:05;;;;;;;6.18;2.65;;;14.40;99.90;;;;;;5032305;28;20060;-48
2023/10/06 07:18:32;;;;;;;10.38;3.25;;;14.40;99.90;;;;;;5032584;28;20044;-50
2023/10/06 07:20:59;;;;;;;14.68;2.97;;;14.40;99.90;;;;;;5032457;28;20119;-46
2023/10/06 07:23:26;;;;;;;10.77;2.95;;;14.50;99.90;;;;;;5032516;28;20747;-51
2023/10/06 07:25:52;;;;;;;8.20;2.58;;;14.50;99.90;;;;;;5032118;28;20044;-46
2023/10/06 07:28:20;;;;;;;10.63;3.00;;;14.60;99.90;;;;;;5032422;28;20148;-47
2023/10/06 07:30:47;;;;;;;11.43;2.67;;;14.60;99.90;;;;;;5032641;28;20481;-49
2023/10/06 07:33:13;;;;;;;11.88;2.70;;;14.70;99.90;;;;;;5036228;28;20077;-47
2023/10/06 07:35:43;;;;;;;11.15;3.25;;;14.70;99.90;;;;;;5036083;28;20046;-50
2023/10/06 07:38:13;;;;;;;10.38;2.72;;;14.80;99.90;;;;;;5035580;28;20052;-48
2023/10/06 07:40:42;;;;;;;9.90;3.00;;;14.80;99.90;;;;;;5031569;28;20041;-51
2023/10/06 07:43:10;;;;;;;8.80;2.58;;;14.80;99.90;;;;;;5035330;28;20092;-49
2023/10/06 07:45:37;;;;;;;8.20;2.60;;;14.90;99.90;;;;;;5042371;28;20116;-50
2023/10/06 07:48:05;;;;;;;10.50;2.60;;;14.90;99.90;;;;;;5053449;28;20128;-51
2023/10/06 07:50:36;;;;;;;11.07;3.13;;;14.90;99.90;;;;;;5053072;28;20069;-48
2023/10/06 07:53:03;;;;;;;10.57;3.00;;;15.00;99.90;;;;;;5055087;28;20045;-48
2023/10/06 07:55:31;;;;;;;10.43;2.88;;;15.00;99.90;;;;;;5054824;28;20126;-45
2023/10/06 07:58:00;;;;;;;11.93;2.60;;;15.10;99.90;;;;;;5053030;28;20037;-48
2023/10/06 08:00:27;;;;;;;11.43;2.72;;;15.10;99.90;;;;;;5020888;28;20452;-48
2023/10/06 08:02:54;;;;;;;7.53;2.72;;;15.20;99.90;;;;;;5034655;28;20048;-45
2023/10/06 08:05:21;;;;;;;7.85;2.47;;;15.30;99.90;;;;;;5034933;28;20075;-44
2023/10/06 08:07:48;;;;;;;8.40;2.42;;;15.30;99.90;;;;;;5035162;28;20244;-45
2023/10/06 08:10:15;;;;;;;8.40;2.42;;;15.40;99.90;;;;;;5035058;28;20041;-48
2023/10/06 08:12:43;;;;;;;10.88;3.00;;;15.40;99.90;;;;;;5035374;28;20038;-47
2023/10/06 08:15:09;;;;;;;11.45;2.97;;;15.50;99.90;;;;;;5035099;28;20469;-46
2023/10/06 08:17:36;;;;;;;10.70;2.50;;;15.60;99.90;;;;;;5035217;28;20041;-46
2023/10/06 08:20:05;;;;;;;9.13;2.42;;;15.60;99.90;;;;;;5034970;28;20042;-48
2023/10/06 08:22:33;;;;;;;8.27;2.70;;;15.70;99.90;;;;;;5035111;28;20323;-46
2023/10/06 08:25:05;;;;;;;10.85;2.72;;;15.70;99.90;;;;;;5035127;28;20064;-46
2023/10/06 08:27:32;;;;;;;8.90;2.47;;;15.80;99.90;;;;;;5033540;28;20412;-48
2023/10/06 08:29:59;;;;;;;10.32;2.33;;;15.80;99.90;;;;;;5034643;28;20045;-46
2023/10/06 08:32:26;;;;;;;9.88;2.75;;;15.80;99.90;;;;;;5035015;28;20091;-48
2023/10/06 08:34:53;;;;;;;8.65;3.10;;;15.90;99.90;;;;;;5037097;28;20059;-46
2023/10/06 08:37:20;;;;;;;11.02;2.80;;;16.00;99.90;;;;;;5034005;28;20421;-46
2023/10/06 08:39:47;;;;;;;10.52;2.50;;;16.00;99.90;;;;;;5034372;28;20053;-45
2023/10/06 08:42:15;;;;;;;11.43;2.42;;;16.00;99.90;;;;;;5034320;28;20038;-47
2023/10/06 08:44:42;;;;;;;8.77;2.47;;;16.10;99.90;;;;;;5034011;28;20037;-51
2023/10/06 08:47:12;;;;;;;9.80;2.60;;;16.10;99.90;;;;;;5035112;28;20437;-52
2023/10/06 08:49:54;;;;;;;7.30;2.65;;;16.10;99.90;;;;;;5034477;28;20083;-47
2023/10/06 08:52:22;;;;;;;9.93;2.85;;;16.20;99.90;;;;;;5034643;28;20508;-50
2023/10/06 08:54:49;;;;;;;8.05;2.60;;;16.20;99.90;;;;;;5034421;28;20069;-51
2023/10/06 08:57:16;;;;;;;9.52;2.58;;;16.30;99.90;;;;;;5033496;28;20056;-48
2023/10/06 08:59:44;;;;;;;9.15;2.65;;;16.40;99.90;;;;;;5033345;28;20485;-49
2023/10/06 09:02:12;;;;;;;10.52;3.35;;;16.40;99.90;;;;;;5033757;28;20042;-50
2023/10/06 09:04:38;;;;;;;8.57;4.18;;;16.50;99.90;;;;;;5038338;28;20028;-51
2023/10/06 09:07:06;;;;;;;8.60;3.08;;;16.50;99.90;;;;;;5053783;28;20041;-52
2023/10/06 09:09:32;;;;;;;6.15;2.35;;;16.60;99.90;;;;;;5053278;28;20128;-49
2023/10/06 09:11:59;;;;;;;10.27;2.83;;;16.60;99.90;;;;;;5053761;28;20502;-47
2023/10/06 09:14:27;;;;;;;8.93;2.65;;;16.60;99.90;;;;;;5052083;28;20140;-48
2023/10/06 09:16:57;;;;;;;8.93;2.60;;;16.70;99.90;;;;;;5044332;28;20050;-45
2023/10/06 09:19:24;;;;;;;6.85;2.30;;;16.70;99.90;;;;;;5033659;28;20037;-47
2023/10/06 09:21:51;;;;;;;8.07;2.35;;;16.80;99.90;;;;;;5033297;28;20046;-49
2023/10/06 09:24:20;;;;;;;5.63;2.10;;;16.80;99.90;;;;;;5033402;28;20485;-47
2023/10/06 09:26:48;;;;;;;9.57;2.70;;;16.90;99.90;;;;;;5032384;28;20037;-46
2023/10/06 09:29:16;;;;;;;7.32;2.47;;;16.90;99.90;;;;;;5022293;28;20045;-49
2023/10/06 09:31:46;;;;;;;12.85;3.95;;;17.00;99.90;;;;;;5033348;28;20056;-46
2023/10/06 09:34:12;;;;;;;9.85;2.78;;;17.00;99.90;;;;;;5033376;28;20052;-48
2023/10/06 09:36:42;;;;;;;11.02;2.63;;;17.10;99.90;;;;;;5033588;28;20048;-50
2023/10/06 09:39:17;;;;;;;8.90;2.80;;;17.10;99.90;;;;;;5033322;28;20041;-48
2023/10/06 09:41:44;;;;;;;8.05;2.50;;;17.20;99.90;;;;;;5012094;28;20049;-50
2023/10/06 09:44:11;;;;;;;8.77;2.40;;;17.20;99.90;;;;;;5013257;28;20595;-47
2023/10/06 09:46:41;;;;;;;5.97;2.17;;;17.30;99.90;;;;;;5032573;28;20533;-53
2023/10/06 09:49:09;;;;;;;9.45;2.35;;;17.40;99.90;;;;;;5033065;28;20088;-48
2023/10/06 09:51:36;;;;;;;7.03;2.20;;;17.40;99.90;;;;;;5033043;28;20053;-49
2023/10/06 09:54:04;;;;;;;7.35;2.08;;;17.50;99.90;;;;;;5032992;28;20099;-47
2023/10/06 09:56:31;;;;;;;8.63;2.10;;;17.50;99.90;;;;;;5032726;28;20056;-49
2023/10/06 09:58:58;;;;;;;9.07;2.42;;;17.60;99.90;;;;;;5032936;28;20105;-49
2023/10/06 10:01:25;;;;;;;6.75;2.30;;;17.70;99.90;;;;;;5033215;28;20038;-50
2023/10/06 10:03:54;;;;;;;6.28;2.13;;;17.70;99.90;;;;;;5032302;28;20428;-50
2023/10/06 10:06:21;;;;;;;5.80;2.53;;;17.80;99.90;;;;;;5032914;28;20041;-46
2023/10/06 10:08:48;;;;;;;7.38;2.22;;;17.80;99.90;;;;;;5033189;28;20037;-52
2023/10/06 10:11:15;;;;;;;7.45;2.50;;;17.90;99.90;;;;;;5033114;28;20500;-50
2023/10/06 10:13:43;;;;;;;7.68;2.50;;;17.90;99.90;;;;;;5032846;28;20038;-51
2023/10/06 10:16:11;;;;;;;10.35;2.60;;;17.90;99.90;;;;;;5032863;28;20144;-50
2023/10/06 10:18:38;;;;;;;6.07;2.33;;;17.90;99.90;;;;;;5032769;28;20051;-45
2023/10/06 10:21:05;;;;;;;8.00;2.45;;;17.90;99.90;;;;;;5031531;28;20038;-48
2023/10/06 10:23:32;;;;;;;4.70;2.35;;;17.90;99.90;;;;;;5032261;28;20096;-48
2023/10/06 10:25:59;;;;;;;6.00;2.30;;;17.90;99.90;;;;;;5032763;28;20129;-48
2023/10/06 10:28:27;;;;;;;6.65;2.35;;;17.90;99.90;;;;;;5031806;28;20037;-49
2023/10/06 10:30:55;;;;;;;6.97;2.10;;;17.90;99.90;;;;;;5032587;28;20049;-49
2023/10/06 10:33:22;;;;;;;7.05;2.33;;;17.90;99.90;;;;;;5032679;28;20497;-46
2023/10/06 10:35:49;;;;;;;5.57;2.00;;;17.90;99.90;;;;;;5024552;28;20120;-52
2023/10/06 10:38:16;;;;;;;6.60;2.53;;;17.90;99.90;;;;;;5032360;28;20042;-45
2023/10/06 10:40:43;;;;;;;9.43;2.88;;;17.90;99.90;;;;;;5032761;28;20044;-50
2023/10/06 10:43:10;;;;;;;5.40;2.20;;;18.00;99.90;;;;;;5032831;28;20060;-51
2023/10/06 10:45:43;;;;;;;9.88;2.72;;;18.00;99.90;;;;;;5032589;28;20056;-51
2023/10/06 10:48:13;;;;;;;6.85;2.25;;;18.00;99.90;;;;;;5032672;28;20038;-47
2023/10/06 10:50:40;;;;;;;7.55;2.45;;;18.00;99.90;;;;;;5031602;28;20124;-52
2023/10/06 10:53:07;;;;;;;7.68;2.80;;;18.10;99.90;;;;;;5032364;28;20473;-49
2023/10/06 10:55:34;;;;;;;7.05;2.03;;;18.10;99.90;;;;;;5031701;28;20124;-51
2023/10/06 10:58:01;;;;;;;5.70;2.25;;;18.10;99.90;;;;;;5030706;28;20540;-50
2023/10/06 11:00:29;;;;;;;6.97;2.17;;;18.10;99.90;;;;;;5032066;28;20037;-50
2023/10/06 11:02:57;;;;;;;4.88;2.20;;;18.20;99.90;;;;;;5031594;28;20041;-50
2023/10/06 11:05:26;;;;;;;7.05;3.95;;;18.20;99.90;;;;;;5032420;28;20516;-51
2023/10/06 11:07:53;;;;;;;6.50;2.13;;;18.20;99.90;;;;;;5034468;28;20041;-49
2023/10/06 11:10:22;;;;;;;7.50;2.33;;;18.30;99.90;;;;;;5036154;28;20132;-50
2023/10/06 11:12:50;;;;;;;5.78;2.20;;;18.20;99.90;;;;;;5035697;28;20103;-49
2023/10/06 11:15:20;;;;;;;6.35;2.35;;;18.30;99.90;;;;;;5036195;28;20392;-49
2023/10/06 11:17:47;;;;;;;5.30;1.95;;;18.30;99.90;;;;;;5035958;28;20089;-52
2023/10/06 11:20:15;;;;;;;5.88;2.70;;;18.30;99.90;;;;;;5035159;28;20544;-44
2023/10/06 11:22:43;;;;;;;7.35;2.28;;;18.40;99.90;;;;;;5035906;28;20037;-49
2023/10/06 11:25:10;;;;;;;6.95;2.55;;;18.50;99.90;;;;;;5035560;28;20041;-49
2023/10/06 11:27:39;;;;;;;23.50;3.67;;;18.50;99.90;;;;;;5035749;28;20136;-46
2023/10/06 11:30:07;;;;;;;112.75;11.90;;;18.50;99.90;;;;;;5035395;28;20037;-48
2023/10/06 11:32:34;;;;;;;7.78;2.88;;;18.50;99.90;;;;;;5035526;28;20045;-48
2023/10/06 11:35:01;;;;;;;8.05;2.58;;;18.60;99.90;;;;;;5035803;28;20049;-47
2023/10/06 11:37:29;;;;;;;87.43;9.57;;;18.60;99.90;;;;;;5034883;28;20104;-47
2023/10/06 11:39:57;;;;;;;8.15;2.80;;;18.70;99.90;;;;;;5035446;28;20499;-46
2023/10/06 11:42:24;;;;;;;6.50;2.20;;;18.80;99.90;;;;;;5035527;28;20365;-47
2023/10/06 11:44:54;;;;;;;6.03;2.22;;;18.80;99.90;;;;;;5034651;28;20038;-46
2023/10/06 11:47:24;;;;;;;6.03;2.20;;;18.80;99.90;;;;;;5035235;28;20472;-48
2023/10/06 11:49:51;;;;;;;7.72;2.60;;;18.80;99.90;;;;;;5034818;28;20052;-50
2023/10/06 11:52:18;;;;;;;6.18;2.45;;;18.80;99.90;;;;;;5035316;28;20077;-50
2023/10/06 11:54:46;;;;;;;8.73;2.72;;;18.80;99.90;;;;;;5035445;28;20124;-45
2023/10/06 11:57:16;;;;;;;9.25;2.40;;;18.80;99.90;;;;;;5031704;28;20052;-51
2023/10/06 11:59:43;;;;;;;5.07;2.35;;;18.80;99.90;;;;;;5035087;28;20042;-48
2023/10/06 12:02:10;;;;;;;9.25;2.40;;;18.80;99.90;;;;;;5033893;28;20037;-49
2023/10/06 12:04:37;;;;;;;11.45;2.78;;;18.80;99.90;;;;;;5034027;28;20045;-53
2023/10/06 12:07:04;;;;;;;5.68;2.72;;;18.80;99.90;;;;;;5035032;28;20048;-49
2023/10/06 12:09:34;;;;;;;8.02;2.50;;;18.70;99.90;;;;;;5035240;28;20045;-50
2023/10/06 12:12:01;;;;;;;5.85;2.55;;;18.70;99.90;;;;;;5035263;28;20042;-53
2023/10/06 12:14:28;;;;;;;6.68;2.50;;;18.80;99.90;;;;;;5035549;28;20057;-51
2023/10/06 12:16:55;;;;;;;6.07;2.53;;;18.90;99.90;;;;;;5035237;28;20047;-48
2023/10/06 12:19:22;;;;;;;6.10;2.78;;;19.00;99.90;;;;;;5031450;28;20045;-49
2023/10/06 12:21:50;;;;;;;6.93;2.60;;;19.10;99.90;;;;;;5033867;28;20045;-46
2023/10/06 12:24:17;;;;;;;5.88;2.50;;;19.20;99.90;;;;;;5033759;28;20049;-51
2023/10/06 12:26:46;;;;;;;5.82;2.40;;;19.30;99.90;;;;;;5033545;28;20030;-48
2023/10/06 12:29:17;;;;;;;4.70;2.60;;;19.40;99.90;;;;;;5033669;28;20054;-48
2023/10/06 12:31:45;;;;;;;8.13;2.60;;;19.40;99.90;;;;;;5033139;28;20087;-50
2023/10/06 12:34:15;;;;;;;10.57;2.75;;;19.40;99.90;;;;;;5034372;28;20053;-50
2023/10/06 12:36:47;;;;;;;10.90;2.60;;;19.50;99.90;;;;;;5034807;28;20072;-47
2023/10/06 12:39:16;;;;;;;9.05;2.50;;;19.60;99.90;;;;;;5034833;28;20095;-52
2023/10/06 12:41:46;;;;;;;5.32;2.35;;;19.60;99.90;;;;;;5035174;28;20037;-52
2023/10/06 12:44:13;;;;;;;6.50;2.45;;;19.60;99.90;;;;;;5034823;28;20049;-48
2023/10/06 12:46:40;;;;;;;8.98;2.40;;;19.70;99.90;;;;;;5034671;28;20045;-49
2023/10/06 12:49:07;;;;;;;11.35;2.90;;;19.70;99.90;;;;;;5034737;28;20439;-53
2023/10/06 12:51:34;;;;;;;5.93;2.40;;;19.80;99.90;;;;;;5033342;28;20065;-50
2023/10/06 12:54:01;;;;;;;8.13;2.60;;;19.80;99.90;;;;;;5034416;28;20107;-53
2023/10/06 12:56:31;;;;;;;5.35;2.75;;;19.80;99.90;;;;;;5034762;28;20050;-51